Council, Idaho
Current Conditions -  °F | °C
As of 1:51 AM on Sunday 26 Oct 2014 (Local Time) from KMYL Reporting Station
Light Rain Light Rain  
Wind Chill: 37°   Ceiling: 9000
Heat Index: 45°   Visibility: 10mi
Dew Point: 35°   Wind: 20mph
Humidity: 68%   Direction: 180°S
Pressure: 29.87"   Gusts: 29mph
Location:  44.73°N, 116.44°W
Report Text: KMYL 260751Z AUTO 18017G25KT 10SM -RA SCT050 OVC090 07/02 A2987 RMK AO2 RAB49 SLP103 P0000 T00720017
Loading
Personal Weather Stations






























Interactive Weather Map
Tropical Storm Tracking
New forecast layout! Learn more

10-Day Weather Forecast

Advertisements
Track Severe Weather on mobile